Airfield :
LOGIN :

Register | Disclaimer

   EN    FR    IT 

 










Legend :    VFR   Marginal VFR   IFR   Intensive IFR   Very Intensive IFR
Visi :
Ceiling :
>= 8 km
>= 3000ft
5 to 8 km
1000 to 3000 ft
1500m to 5 km
500 to 1000 ft
800 to 1500m
200 to 500 ft
< 800m
< 200 ft
Symbols :   Thunderstorms  Fog  Heavy snow  Heavy precipitations  Wind > 20 kt
SIGMETs :     Misc.  Thunderstorms  Icing  Turbulence  Mountain Waves  Volcanic Ashes






- Airport Elevation : 1768 ft


LEHC - Huesca Pirineos

CURRENT METAR :
  • 290500Z AUTO 28007KT CAVOK 09/06 Q1025

EXPIRED METARs :
  • 290430Z AUTO 30009KT CAVOK 09/07 Q1025
  • 290400Z AUTO 29008KT CAVOK 09/07 Q1025
  • 290330Z AUTO 29009KT CAVOK 10/07 Q1024
  • 290300Z AUTO 29009KT CAVOK 10/07 Q1025
  • 290230Z AUTO 28009KT CAVOK 10/07 Q1025

TAF TAF LEHC
Valid from the 29 at 03:00 until the 30 at 03:00 UTC


290200Z 2903/3003 VRB04KT CAVOK TX19/2913Z TN06/2905Z
PROB30
TEMPO 2903/2908 3000 BR
TEMPO 2911/2916 25008KT



MET'MAP, your aeronautical weather chart ! - Copyright ORBIFLY December 2007 - Disclaimer

ORBIFLY MET'MAP TEAM :

Programming & Development : Alexandra Zaïnal
Concept & original design : Baudouin d'Aumeries
Assistance for programming : Marc-Olivier Méhu
Technical & hardware support : Manuel Goepfert

Contact : metmap@orbifly.com




SOURCES & CREDITS :

   NOAA